createdAt,value
2019-04-06T00:02:13.269Z,23.77
2019-04-06T00:04:41.953Z,23.37
2019-04-06T00:07:10.845Z,24.10
2019-04-06T00:09:40.165Z,22.67
2019-04-06T00:12:08.863Z,24.15
2019-04-06T00:14:37.722Z,22.23
2019-04-06T00:17:06.485Z,22.87
2019-04-06T00:19:35.649Z,21.40
2019-04-06T00:22:04.369Z,22.77
2019-04-06T00:24:33.593Z,23.47
2019-04-06T00:27:02.590Z,22.35
2019-04-06T00:29:31.621Z,21.93
2019-04-06T00:32:11.075Z,21.20
2019-04-06T00:34:39.845Z,20.53
2019-04-06T00:37:08.842Z,21.85
2019-04-06T00:39:37.789Z,20.25
2019-04-06T00:42:06.745Z,21.48
2019-04-06T00:44:35.406Z,20.15
2019-04-06T00:47:04.136Z,19.42
2019-04-06T00:49:32.775Z,19.25
2019-04-06T00:52:01.426Z,20.62
2019-04-06T00:54:30.396Z,20.63
2019-04-06T00:56:59.089Z,18.67
2019-04-06T00:59:27.749Z,19.15
2019-04-06T01:01:56.448Z,19.70
2019-04-06T01:04:25.402Z,18.67
2019-04-06T01:06:54.257Z,17.57
2019-04-06T01:09:23.008Z,18.07
2019-04-06T01:11:52.350Z,18.10
2019-04-06T01:14:21.030Z,17.83
2019-04-06T01:16:49.907Z,17.60
2019-04-06T01:19:19.030Z,18.32
2019-04-06T01:21:47.705Z,17.10
2019-04-06T01:24:16.901Z,16.35
2019-04-06T01:26:45.863Z,16.07
2019-04-06T01:29:14.561Z,15.80
2019-04-06T01:31:44.450Z,16.83
2019-04-06T01:34:13.164Z,18.27
2019-04-06T01:36:42.142Z,17.52
2019-04-06T01:39:11.101Z,16.27
2019-04-06T01:41:39.807Z,15.95
2019-04-06T01:44:08.733Z,16.37
2019-04-06T01:46:37.461Z,16.67
2019-04-06T01:49:06.967Z,17.70
2019-04-06T01:51:35.904Z,17.03
2019-04-06T01:54:04.774Z,16.57
2019-04-06T01:56:33.498Z,16.33
2019-04-06T01:59:02.202Z,15.67
2019-04-06T02:01:41.749Z,17.77
2019-04-06T02:04:10.498Z,15.60
2019-04-06T02:06:39.854Z,16.00
2019-04-06T02:09:08.782Z,17.13
2019-04-06T02:11:37.453Z,17.32
2019-04-06T02:14:06.714Z,17.30
2019-04-06T02:16:37.040Z,17.23
2019-04-06T02:19:05.850Z,17.77
2019-04-06T02:21:35.034Z,17.30
2019-04-06T02:24:03.790Z,17.13
2019-04-06T02:26:32.716Z,16.63
2019-04-06T02:29:01.616Z,15.53
2019-04-06T02:31:48.310Z,16.30
2019-04-06T02:34:40.506Z,16.15
2019-04-06T02:37:26.810Z,16.57
2019-04-06T02:40:10.416Z,15.65
2019-04-06T02:42:43.726Z,16.80
2019-04-06T02:45:12.486Z,15.85
2019-04-06T02:47:41.163Z,16.47
2019-04-06T02:50:10.623Z,16.87
2019-04-06T02:52:39.297Z,15.15
2019-04-06T02:55:08.288Z,15.53
2019-04-06T02:57:37.058Z,14.65
2019-04-06T03:00:06.350Z,15.03
2019-04-06T03:02:35.161Z,16.03
2019-04-06T03:05:04.253Z,15.68
2019-04-06T03:07:33.163Z,16.00
2019-04-06T03:10:02.142Z,14.20
2019-04-06T03:12:31.014Z,16.60
2019-04-06T03:15:00.108Z,15.03
2019-04-06T03:17:28.780Z,15.15
2019-04-06T03:19:58.005Z,15.40
2019-04-06T03:22:26.944Z,14.55
2019-04-06T03:24:55.746Z,15.70
2019-04-06T03:27:24.603Z,14.03
2019-04-06T03:29:58.365Z,15.00
2019-04-06T03:32:24.161Z,15.63
2019-04-06T03:34:52.895Z,13.93
2019-04-06T03:37:21.967Z,14.73
2019-04-06T03:39:51.343Z,15.07
2019-04-06T03:42:20.292Z,14.23
2019-04-06T03:44:49.433Z,15.20
2019-04-06T03:47:18.473Z,15.40
2019-04-06T03:49:47.400Z,14.80
2019-04-06T03:52:16.283Z,14.65
2019-04-06T03:54:45.290Z,14.73
2019-04-06T03:57:16.906Z,13.77
2019-04-06T03:59:45.119Z,15.30
2019-04-06T04:02:13.923Z,14.07
2019-04-06T04:04:42.704Z,13.93
2019-04-06T04:07:11.424Z,13.97
2019-04-06T04:09:40.554Z,14.97
2019-04-06T04:12:09.428Z,13.40
2019-04-06T04:14:38.562Z,13.40
2019-04-06T04:17:07.232Z,13.27
2019-04-06T04:19:36.117Z,13.13
2019-04-06T04:22:05.346Z,14.17
2019-04-06T04:24:34.321Z,13.87
2019-04-06T04:27:03.350Z,12.77
2019-04-06T04:29:32.038Z,13.43
2019-04-06T04:32:00.722Z,13.73
2019-04-06T04:34:29.702Z,14.70
2019-04-06T04:36:59.306Z,13.47
2019-04-06T04:39:28.219Z,12.37
2019-04-06T04:41:57.210Z,12.63
2019-04-06T04:44:26.233Z,13.47
2019-04-06T04:46:55.197Z,13.27
2019-04-06T04:49:23.862Z,14.20
2019-04-06T04:51:52.564Z,14.33
2019-04-06T04:54:21.658Z,14.97
2019-04-06T04:56:50.707Z,13.68
2019-04-06T04:59:19.695Z,12.93
2019-04-06T05:01:48.476Z,12.85
2019-04-06T05:04:17.158Z,13.90
2019-04-06T05:06:54.408Z,13.37
2019-04-06T05:09:23.669Z,12.17
2019-04-06T05:11:52.644Z,13.83
2019-04-06T05:15:01.284Z,12.50
2019-04-06T05:17:30.282Z,14.37
2019-04-06T05:19:59.380Z,12.87
2019-04-06T05:22:28.541Z,13.28
2019-04-06T05:25:01.304Z,11.83
2019-04-06T05:27:30.013Z,13.53
2019-04-06T05:29:58.758Z,14.80
2019-04-06T05:32:30.093Z,12.05
2019-04-06T05:35:00.840Z,12.90
2019-04-06T05:37:32.749Z,12.97
2019-04-06T05:40:04.848Z,12.18
2019-04-06T05:42:34.877Z,12.50
2019-04-06T05:45:03.879Z,12.28
2019-04-06T05:47:32.698Z,14.35
2019-04-06T05:50:01.442Z,13.35
2019-04-06T05:52:32.687Z,12.07
2019-04-06T05:55:01.718Z,11.73
2019-04-06T05:57:32.135Z,13.75
2019-04-06T06:00:01.389Z,12.00
2019-04-06T06:02:30.375Z,14.65
2019-04-06T06:05:00.831Z,14.47
2019-04-06T06:07:29.729Z,13.00
2019-04-06T06:09:58.412Z,13.75
2019-04-06T06:12:27.339Z,14.35
2019-04-06T06:14:57.746Z,13.50
2019-04-06T06:17:26.609Z,15.15
2019-04-06T06:19:55.608Z,13.68
2019-04-06T06:22:24.342Z,14.23
2019-04-06T06:24:53.190Z,14.80
2019-04-06T06:27:23.024Z,15.08
2019-04-06T06:29:52.398Z,14.58
2019-04-06T06:32:21.622Z,14.80
2019-04-06T06:34:50.422Z,14.18
2019-04-06T06:37:19.487Z,14.87
2019-04-06T06:39:48.426Z,14.55
2019-04-06T06:42:17.369Z,14.58
2019-04-06T06:44:46.430Z,14.85
2019-04-06T06:47:15.130Z,15.72
2019-04-06T06:49:44.234Z,14.73
2019-04-06T06:52:20.426Z,15.67
2019-04-06T06:54:49.186Z,16.00
2019-04-06T06:57:18.015Z,16.52
2019-04-06T06:59:46.762Z,14.43
2019-04-06T07:02:15.800Z,14.80
2019-04-06T07:04:44.802Z,13.70
2019-04-06T07:07:13.545Z,15.93
2019-04-06T07:09:42.255Z,13.80
2019-04-06T07:12:12.759Z,15.40
2019-04-06T07:14:41.612Z,16.60
2019-04-06T07:17:10.385Z,15.50
2019-04-06T07:19:39.074Z,15.63
2019-04-06T07:22:07.814Z,15.63
2019-04-06T07:24:36.534Z,17.00
2019-04-06T07:27:05.471Z,15.45
2019-04-06T07:29:34.205Z,15.65
2019-04-06T07:32:02.944Z,16.17
2019-04-06T07:34:31.920Z,16.73
2019-04-06T07:37:01.195Z,17.48
2019-04-06T07:39:30.189Z,15.50
2019-04-06T07:41:59.552Z,16.57
2019-04-06T07:44:28.328Z,17.70
2019-04-06T07:46:57.445Z,16.47
2019-04-06T07:49:26.649Z,16.87
2019-04-06T07:51:56.085Z,16.85
2019-04-06T07:54:38.986Z,16.27
2019-04-06T07:57:07.776Z,17.25
2019-04-06T07:59:38.150Z,16.02
2019-04-06T08:02:07.112Z,16.60
2019-04-06T08:04:35.875Z,16.00
2019-04-06T08:07:04.888Z,16.70
2019-04-06T08:09:33.916Z,16.37
2019-04-06T08:12:02.893Z,17.40
2019-04-06T08:14:31.584Z,17.05
2019-04-06T08:17:00.540Z,17.40
2019-04-06T08:19:29.242Z,17.27
2019-04-06T08:21:58.054Z,16.50
2019-04-06T08:24:26.951Z,17.57
2019-04-06T08:26:55.812Z,15.95
2019-04-06T08:29:24.702Z,16.37
2019-04-06T08:31:53.712Z,15.95
2019-04-06T08:34:22.729Z,15.35
2019-04-06T08:36:51.650Z,17.23
2019-04-06T08:39:20.427Z,15.88
2019-04-06T08:41:49.409Z,16.80
2019-04-06T08:44:18.486Z,17.48
2019-04-06T08:46:47.181Z,17.40
2019-04-06T08:49:16.385Z,18.27
2019-04-06T08:51:45.380Z,15.88
2019-04-06T08:54:14.369Z,16.97
2019-04-06T08:56:43.740Z,16.12
2019-04-06T08:59:13.574Z,16.27
2019-04-06T09:01:42.870Z,14.47
2019-04-06T09:04:11.970Z,16.60
2019-04-06T09:06:40.861Z,16.50
2019-04-06T09:09:09.775Z,16.57
2019-04-06T09:11:38.663Z,17.45
2019-04-06T09:14:07.497Z,16.27
2019-04-06T09:16:36.301Z,15.70
2019-04-06T09:19:05.320Z,17.17
2019-04-06T09:21:34.036Z,17.80
2019-04-06T09:24:03.029Z,15.72
2019-04-06T09:26:32.075Z,15.65
2019-04-06T09:29:01.062Z,16.05
2019-04-06T09:31:29.921Z,16.40
2019-04-06T09:33:59.249Z,16.95
2019-04-06T09:36:27.990Z,17.07
2019-04-06T09:38:56.981Z,16.20
2019-04-06T09:41:26.597Z,17.02
2019-04-06T09:43:55.627Z,16.60
2019-04-06T09:46:35.661Z,17.57
2019-04-06T09:49:17.306Z,15.88
2019-04-06T09:52:04.962Z,15.32
2019-04-06T09:54:40.055Z,15.30
2019-04-06T09:57:31.300Z,13.70
2019-04-06T10:00:17.944Z,14.78
2019-04-06T10:02:59.968Z,13.38
2019-04-06T10:05:50.749Z,13.35
2019-04-06T10:08:41.727Z,13.72
2019-04-06T10:11:35.729Z,14.65
2019-04-06T10:14:26.485Z,14.53
2019-04-06T10:17:22.165Z,12.95
2019-04-06T10:20:17.261Z,12.60
2019-04-06T10:23:13.420Z,12.82
2019-04-06T10:26:00.964Z,12.95
2019-04-06T10:29:04.133Z,13.50
2019-04-06T10:31:50.855Z,13.43
2019-04-06T10:34:41.790Z,12.53
2019-04-06T10:37:32.882Z,12.50
2019-04-06T10:40:12.034Z,13.50
2019-04-06T10:42:55.414Z,8.98
2019-04-06T10:45:41.106Z,12.30
2019-04-06T10:48:21.652Z,12.63
2019-04-06T10:51:10.283Z,11.22
2019-04-06T10:53:59.445Z,11.80
2019-04-06T10:56:48.667Z,9.83
2019-04-06T10:59:28.001Z,12.33
2019-04-06T11:02:08.599Z,8.10
2019-04-06T11:04:44.781Z,9.70
2019-04-06T11:07:35.749Z,10.93
2019-04-06T11:10:29.133Z,11.60
2019-04-06T11:13:13.560Z,8.63
2019-04-06T11:16:07.384Z,9.33
2019-04-06T11:18:48.775Z,11.33
2019-04-06T11:21:36.822Z,11.35
2019-04-06T11:24:23.101Z,10.83
2019-04-06T11:27:11.218Z,10.65
2019-04-06T11:29:57.486Z,11.75
2019-04-06T11:32:45.233Z,10.88
2019-04-06T11:35:32.374Z,11.18
2019-04-06T11:38:13.734Z,10.55
2019-04-06T11:41:01.570Z,11.45
2019-04-06T11:43:43.746Z,9.35
2019-04-06T11:46:31.611Z,12.07
2019-04-06T11:49:17.987Z,12.00
2019-04-06T11:52:11.777Z,13.40
2019-04-06T11:54:53.839Z,11.75
2019-04-06T11:57:35.502Z,12.47
2019-04-06T12:00:28.181Z,13.75
2019-04-06T12:03:12.587Z,13.03
2019-04-06T12:05:52.230Z,12.15
2019-04-06T12:08:38.366Z,12.87
2019-04-06T12:11:32.170Z,13.10
2019-04-06T12:14:11.952Z,12.68
2019-04-06T12:16:51.871Z,10.98
2019-04-06T12:19:36.688Z,11.67
2019-04-06T12:22:29.111Z,12.60
2019-04-06T12:25:20.743Z,12.68
2019-04-06T12:28:01.281Z,11.25
2019-04-06T12:30:50.499Z,8.83
2019-04-06T12:33:38.225Z,9.68
2019-04-06T12:36:20.163Z,9.90
2019-04-06T12:38:55.085Z,9.38
2019-04-06T12:41:42.660Z,8.97
2019-04-06T12:44:30.661Z,10.23
2019-04-06T12:47:19.552Z,9.83
2019-04-06T12:49:57.641Z,11.30
2019-04-06T12:52:54.736Z,11.27
2019-04-06T12:55:35.286Z,11.55
2019-04-06T12:58:26.278Z,9.83
2019-04-06T13:01:20.360Z,11.35
2019-04-06T13:03:56.703Z,6.97
2019-04-06T13:06:43.298Z,10.48
2019-04-06T13:09:29.837Z,11.08
2019-04-06T13:12:05.831Z,10.50
2019-04-06T13:14:52.819Z,10.30
2019-04-06T13:17:28.315Z,12.13
2019-04-06T13:20:14.622Z,12.15
2019-04-06T13:22:55.623Z,10.85
2019-04-06T13:25:31.698Z,11.30
2019-04-06T13:28:06.553Z,11.63
2019-04-06T13:31:01.822Z,11.40
2019-04-06T13:33:34.614Z,8.98
2019-04-06T13:36:26.236Z,9.78
2019-04-06T13:39:02.694Z,9.55
2019-04-06T13:41:42.850Z,10.07
2019-04-06T13:44:20.404Z,10.40
2019-04-06T13:46:57.421Z,10.72
2019-04-06T13:49:48.912Z,9.28
2019-04-06T13:52:26.070Z,8.18
2019-04-06T13:55:12.265Z,8.53
2019-04-06T13:57:54.050Z,7.87
2019-04-06T14:00:36.411Z,8.53
2019-04-06T14:03:22.847Z,7.05
2019-04-06T14:06:16.501Z,7.27
2019-04-06T14:09:10.380Z,7.12
2019-04-06T14:11:52.488Z,5.95
2019-04-06T14:14:40.342Z,6.60
2019-04-06T14:17:17.341Z,8.43
2019-04-06T14:19:54.282Z,8.15
2019-04-06T14:22:40.018Z,5.37
2019-04-06T14:25:32.420Z,7.80
2019-04-06T14:28:09.739Z,6.67
2019-04-06T14:30:46.596Z,8.60
2019-04-06T14:33:37.877Z,8.08
2019-04-06T14:36:24.875Z,7.03
2019-04-06T14:39:19.574Z,4.80
2019-04-06T14:42:13.379Z,5.97
2019-04-06T14:45:00.554Z,8.30
2019-04-06T14:47:49.661Z,6.35
2019-04-06T14:50:44.021Z,6.73
2019-04-06T14:53:24.685Z,6.58
2019-04-06T14:56:12.722Z,4.30
2019-04-06T14:59:00.954Z,8.10
2019-04-06T15:01:57.132Z,7.53
2019-04-06T15:04:43.422Z,6.78
2019-04-06T15:07:30.121Z,6.08
2019-04-06T15:10:08.079Z,8.60
2019-04-06T15:12:46.535Z,8.75
2019-04-06T15:15:47.728Z,8.35
2019-04-06T15:18:36.396Z,9.33
2019-04-06T15:21:30.952Z,6.12
2019-04-06T15:24:31.408Z,9.00
2019-04-06T15:27:19.863Z,8.45
2019-04-06T15:30:14.300Z,3.47
2019-04-06T15:32:49.362Z,8.05
2019-04-06T15:35:37.198Z,6.55
2019-04-06T15:38:37.112Z,7.53
2019-04-06T15:41:41.241Z,5.67
2019-04-06T15:44:29.613Z,6.65
2019-04-06T15:47:10.255Z,6.35
2019-04-06T15:50:11.330Z,7.33
2019-04-06T15:52:47.008Z,5.28
2019-04-06T15:55:22.519Z,7.10
2019-04-06T15:57:56.146Z,7.45
2019-04-06T16:00:31.166Z,6.00
2019-04-06T16:03:11.825Z,6.92
2019-04-06T16:05:59.558Z,7.62
2019-04-06T16:09:05.897Z,6.90
2019-04-06T16:11:50.214Z,7.45
2019-04-06T16:14:28.966Z,6.70
2019-04-06T16:17:13.381Z,5.92
2019-04-06T16:19:58.139Z,6.50
2019-04-06T16:22:35.195Z,6.80
2019-04-06T16:25:15.658Z,7.35
2019-04-06T16:28:09.316Z,6.78
2019-04-06T16:30:44.001Z,7.33
2019-04-06T16:33:25.119Z,8.30
2019-04-06T16:36:09.364Z,7.17
2019-04-06T16:39:03.540Z,8.58
2019-04-06T16:41:56.641Z,8.40
2019-04-06T16:44:44.722Z,5.37
2019-04-06T16:47:31.530Z,7.40
2019-04-06T16:50:07.496Z,8.98
2019-04-06T16:52:58.577Z,7.70
2019-04-06T16:55:45.363Z,7.72
2019-04-06T16:58:32.059Z,8.18
2019-04-06T17:01:21.071Z,8.48
2019-04-06T17:04:07.421Z,8.73
2019-04-06T17:07:02.217Z,7.05
2019-04-06T17:09:44.609Z,7.97
2019-04-06T17:12:30.937Z,7.87
2019-04-06T17:15:34.493Z,9.23
2019-04-06T17:18:15.361Z,7.72
2019-04-06T17:20:56.865Z,8.95
2019-04-06T17:23:34.058Z,9.15
2019-04-06T17:26:20.666Z,7.90
2019-04-06T17:29:04.483Z,7.92
2019-04-06T17:31:44.182Z,8.68
2019-04-06T17:34:21.141Z,6.10
2019-04-06T17:37:07.886Z,9.55
2019-04-06T17:39:59.507Z,8.25
2019-04-06T17:42:41.682Z,7.08
2019-04-06T17:45:31.399Z,9.48
2019-04-06T17:48:27.289Z,8.53
2019-04-06T17:51:07.442Z,9.68
2019-04-06T17:53:57.013Z,10.20
2019-04-06T17:56:52.524Z,6.97
2019-04-06T17:59:44.837Z,8.33
2019-04-06T18:02:49.259Z,8.60
2019-04-06T18:05:31.848Z,7.95
2019-04-06T18:08:21.238Z,8.45
2019-04-06T18:10:57.075Z,9.60
2019-04-06T18:13:37.592Z,9.00
2019-04-06T18:16:07.027Z,8.28
2019-04-06T18:18:36.287Z,8.48
2019-04-06T18:21:05.187Z,9.18
2019-04-06T18:23:34.607Z,9.57
2019-04-06T18:26:03.505Z,7.95
2019-04-06T18:28:32.234Z,9.30
2019-04-06T18:31:13.710Z,9.05
2019-04-06T18:33:42.402Z,8.78
2019-04-06T18:36:11.819Z,6.72
2019-04-06T18:38:43.650Z,6.87
2019-04-06T18:41:14.859Z,8.37
2019-04-06T18:43:44.084Z,8.50
2019-04-06T18:46:15.372Z,8.75
2019-04-06T18:48:43.856Z,7.45
2019-04-06T18:51:12.593Z,9.50
2019-04-06T18:53:42.408Z,7.80
2019-04-06T18:56:11.241Z,8.05
2019-04-06T18:58:40.019Z,8.75
2019-04-06T19:01:08.988Z,9.00
2019-04-06T19:03:38.083Z,8.40
2019-04-06T19:06:07.130Z,8.28
2019-04-06T19:08:36.499Z,8.90
2019-04-06T19:11:05.880Z,9.75
2019-04-06T19:13:34.677Z,8.45
2019-04-06T19:16:03.852Z,9.40
2019-04-06T19:18:33.379Z,7.67
2019-04-06T19:21:02.235Z,9.40
2019-04-06T19:23:31.178Z,8.60
2019-04-06T19:26:00.231Z,7.10
2019-04-06T19:28:29.010Z,8.78
2019-04-06T19:30:58.053Z,9.73
2019-04-06T19:33:28.314Z,8.85
2019-04-06T19:35:58.727Z,7.90
2019-04-06T19:38:28.850Z,8.60
2019-04-06T19:40:57.879Z,8.03
2019-04-06T19:43:31.167Z,9.73
2019-04-06T19:45:57.699Z,9.50
2019-04-06T19:48:26.757Z,9.83
2019-04-06T19:50:55.595Z,7.55
2019-04-06T19:53:24.372Z,8.90
2019-04-06T19:55:53.141Z,8.67
2019-04-06T19:58:21.859Z,9.35
2019-04-06T20:00:50.751Z,8.55
2019-04-06T20:03:19.750Z,9.98
2019-04-06T20:05:48.430Z,7.58
2019-04-06T20:08:17.850Z,8.45
2019-04-06T20:10:47.928Z,9.85
2019-04-06T20:13:17.669Z,9.26
2019-04-06T20:15:46.500Z,10.50
2019-04-06T20:18:15.190Z,9.53
2019-04-06T20:20:44.159Z,10.05
2019-04-06T20:23:13.235Z,10.88
2019-04-06T20:25:42.152Z,9.70
2019-04-06T20:28:11.064Z,11.30
2019-04-06T20:30:42.948Z,11.28
2019-04-06T20:33:12.279Z,11.33
2019-04-06T20:35:41.203Z,10.28
2019-04-06T20:38:10.413Z,10.68
2019-04-06T20:40:39.237Z,10.65
2019-04-06T20:43:08.415Z,10.70
2019-04-06T20:45:37.752Z,9.68
2019-04-06T20:48:07.668Z,9.78
2019-04-06T20:50:36.453Z,10.03
2019-04-06T20:53:05.577Z,10.53
2019-04-06T20:55:34.418Z,9.68
2019-04-06T20:58:03.386Z,11.03
2019-04-06T21:00:32.403Z,10.18
2019-04-06T21:03:04.338Z,9.63
2019-04-06T21:05:32.953Z,12.07
2019-04-06T21:08:02.548Z,8.43
2019-04-06T21:10:31.588Z,9.77
2019-04-06T21:13:00.624Z,10.32
2019-04-06T21:15:30.308Z,10.30
2019-04-06T21:17:59.002Z,10.63
2019-04-06T21:20:27.773Z,9.13
2019-04-06T21:22:57.280Z,10.95
2019-04-06T21:25:26.359Z,8.83
2019-04-06T21:27:55.164Z,9.83
2019-04-06T21:30:24.511Z,10.55
2019-04-06T21:32:53.794Z,10.60
2019-04-06T21:35:23.522Z,9.40
2019-04-06T21:37:52.872Z,9.53
2019-04-06T21:40:21.638Z,8.83
2019-04-06T21:42:51.152Z,9.98
2019-04-06T21:45:20.682Z,8.98
2019-04-06T21:47:50.451Z,9.35
2019-04-06T21:50:19.257Z,10.13
2019-04-06T21:52:49.598Z,9.58
2019-04-06T21:55:18.412Z,9.98
2019-04-06T21:57:47.690Z,9.60
2019-04-06T22:00:24.082Z,9.48
2019-04-06T22:02:53.038Z,9.45
2019-04-06T22:05:21.749Z,10.64
2019-04-06T22:07:53.588Z,10.38
2019-04-06T22:10:21.021Z,10.85
2019-04-06T22:12:50.220Z,10.03
2019-04-06T22:15:19.241Z,10.68
2019-04-06T22:17:48.163Z,10.50
2019-04-06T22:20:17.591Z,9.53
2019-04-06T22:22:46.929Z,9.73
2019-04-06T22:25:15.947Z,10.60
2019-04-06T22:27:45.043Z,9.95
2019-04-06T22:30:14.079Z,11.20
2019-04-06T22:32:42.766Z,9.45
2019-04-06T22:35:11.726Z,9.38
2019-04-06T22:37:41.148Z,10.20
2019-04-06T22:40:10.309Z,10.35
2019-04-06T22:42:39.017Z,9.20
2019-04-06T22:45:10.574Z,10.43
2019-04-06T22:47:39.860Z,9.28
2019-04-06T22:50:09.597Z,10.15
2019-04-06T22:52:38.845Z,9.93
2019-04-06T22:55:08.489Z,9.93
2019-04-06T22:57:37.548Z,7.37
2019-04-06T23:00:08.714Z,9.95
2019-04-06T23:02:47.545Z,9.48
2019-04-06T23:05:23.498Z,9.73
2019-04-06T23:07:53.372Z,10.60
2019-04-06T23:10:22.824Z,10.08
2019-04-06T23:12:51.910Z,10.93
2019-04-06T23:15:21.135Z,10.10
2019-04-06T23:17:49.931Z,10.25
2019-04-06T23:20:19.673Z,11.40
2019-04-06T23:22:48.938Z,7.72
2019-04-06T23:25:17.680Z,11.25
2019-04-06T23:27:46.825Z,9.68
2019-04-06T23:30:15.810Z,9.60
2019-04-06T23:32:44.870Z,11.48
2019-04-06T23:35:13.998Z,8.85
2019-04-06T23:37:42.966Z,10.43
2019-04-06T23:40:12.308Z,9.88
2019-04-06T23:42:41.975Z,9.90
2019-04-06T23:45:11.015Z,10.35
2019-04-06T23:47:40.046Z,10.32
2019-04-06T23:50:08.794Z,10.10
2019-04-06T23:52:37.482Z,9.08
2019-04-06T23:55:06.350Z,10.23
2019-04-06T23:57:35.087Z,10.17
